Mahlon Sweet Field
KEUG : rendu visible

Aérodrome :











RETROUVEZ-NOUS SUR...

 
LOGIN :

S'inscrire | Disclaimer

   EN    FR    IT 

 









Légende :    VFR   VFR Marginal   IFR   IFR Intensif   IFR Très Intensif
Visi : 
Plafond : 
>= 8 km
>= 3000ft
5 à 8 km
1000 à 3000 ft
1500m à 5 km
500 à 1000 ft
800 à 1500m
200 à 500 ft
< 800m
< 200 ft
Symboles :   Orages  Brouillard  Fortes neiges  Fortes précipitations  Vent > 20 kt






- Altitude de l'aérodrome : 374 ft
- Code IATA : EUG


KEUG - Mahlon Sweet Field

DERNIER METAR :
  • 251854Z 06004KT 10SM BKN060 BKN210 21/13 A3012 RMK AO2 SLP199 T02060128

METARs EXPIRÉS :
  • 251754Z 00000KT 10SM BKN070 BKN085 OVC220 19/11 A3012 RMK AO2 SLP199 T01890111 10200 20094 51005
  • 251654Z 00000KT 10SM FEW050 BKN090 BKN200 18/10 A3012 RMK AO2 SLP197 T01780100

TAF KEUG
Valide du 25 à 18h jusqu'au 26 à 18h UTC


251723Z 2518/2618 VRB03KT P6SM FEW050 BKN090 BKN200
FM252100 01008KT P6SM BKN120
FM261300 36005KT P6SM BKN045
FM261400 36005KT P6SM BKN030
FM261600 01008KT P6SM BKN035
FIR KZSE / Amérique du Nord



MET'MAP, la Météo Aéronautique d'un coup d'oeil ! - Copyright ORBIFLY Décembre 2007 - Disclaimer

ORBIFLY MET'MAP TEAM :

Programmation & Développement : Alexandra Zaïnal
Sur une idée originale de : Baudouin d'Aumeries
Assistance à la programmation : Marc-Olivier Méhu
Soutien technique & logistique : Manuel Goepfert

Contact : metmap@orbifly.com




SOURCES & CREDITS :

   NOAA       Earth
Advisory